Flight Track Log - Related Links

Times and Time Zones

All times are in EDT time to prevent confusion due to time zone crossing. See the AWE1940 flight status page for this flight to view local times or setup timezone preferences in your user account.

Time Position Orientation Groundspeed Altitude Reporting Facility
EDT Latitude Longitude Course Direction KTS MPH feet Rate Location/Type
Wed 10:32:00 PM 35.8423 -80.4211 34° Northeast  Level Estimated
Wed 10:33:00 PM 35.9319 -80.3450 35° Northeast  Level Estimated
Wed 10:34:00 PM 36.0215 -80.2688 35° Northeast  Level Estimated
Wed 10:35:00 PM 36.1110 -80.1923 35° Northeast  Level Estimated
Wed 10:36:00 PM 36.2005 -80.1157 35° Northeast  Level Estimated
Wed 10:37:00 PM 36.2899 -80.0389 35° Northeast  Level Estimated
Wed 10:38:00 PM 36.3792 -79.9619 35° Northeast  Level Estimated
Wed 10:39:00 PM 36.4685 -79.8848 35° Northeast  Level Estimated
Wed 10:40:00 PM 36.5578 -79.8074 35° Northeast  Level Estimated
Wed 10:41:00 PM 36.6470 -79.7299 35° Northeast  Level Estimated
Wed 10:42:00 PM 36.7362 -79.6522 35° Northeast  Level Estimated
Wed 10:43:00 PM 36.8253 -79.5744 35° Northeast  Level Estimated
Wed 10:44:00 PM 36.9143 -79.4963 35° Northeast  Level Estimated
Wed 10:45:00 PM 37.0033 -79.4181 35° Northeast  Level Estimated
Wed 10:46:00 PM 37.0923 -79.3397 35° Northeast  Level Estimated
Wed 10:47:00 PM 37.1812 -79.2611 35° Northeast  Level Estimated
Wed 10:48:00 PM 37.2701 -79.1823 35° Northeast  Level Estimated
Wed 10:49:00 PM 37.3589 -79.1033 35° Northeast  Level Estimated
Wed 10:50:00 PM 37.4476 -79.0241 35° Northeast  Level Estimated
Wed 10:51:00 PM 37.5363 -78.9448 35° Northeast  Level Estimated
Wed 10:52:00 PM 37.6250 -78.8653 35° Northeast  Level Estimated
Wed 10:53:00 PM 37.7136 -78.7856 35° Northeast  Level Estimated
Wed 10:54:00 PM 37.8021 -78.7056 35° Northeast  Level Estimated
Wed 10:55:00 PM 37.8906 -78.6255 36° Northeast  Level Estimated
Wed 10:56:00 PM 37.9790 -78.5452 36° Northeast  Level Estimated
Wed 10:57:00 PM 38.0674 -78.4647 36° Northeast  Level Estimated
Wed 10:58:00 PM 38.1557 -78.3840 36° Northeast  Level Estimated
Wed 10:59:00 PM 38.2439 -78.3032 36° Northeast  Level Estimated
Wed 11:00:00 PM 38.3322 -78.2221 36° Northeast  Level Estimated
Wed 11:01:00 PM 38.4203 -78.1408 36° Northeast  Level Estimated
Wed 11:02:00 PM 38.5084 -78.0593 36° Northeast  Level Estimated
Wed 11:03:00 PM 38.5965 -77.9776 36° Northeast  Level Estimated
Wed 11:04:00 PM 38.6844 -77.8958 36° Northeast  Level Estimated
Wed 11:05:00 PM 38.7724 -77.8137 36° Northeast  Level Estimated
Wed 11:06:00 PM 38.8602 -77.7314 36° Northeast  Level Estimated
Wed 11:07:00 PM 38.9480 -77.6489 36° Northeast  Level Estimated
Wed 11:08:00 PM 39.0358 -77.5662 36° Northeast  Level Estimated
Wed 11:09:00 PM 39.1235 -77.4833 36° Northeast  Level Estimated
Wed 11:10:00 PM 39.2111 -77.4002 36° Northeast  Level Estimated
Wed 11:11:00 PM 39.2987 -77.3169 36° Northeast  Level Estimated
Wed 11:12:00 PM 39.3862 -77.2334 36° Northeast  Level Estimated
Wed 11:13:00 PM 39.4736 -77.1497 36° Northeast  Level Estimated
Wed 11:14:00 PM 39.5610 -77.0657 37° Northeast  Level Estimated
Wed 11:15:00 PM 39.6484 -76.9816 37° Northeast  Level Estimated
Wed 11:16:00 PM 39.7356 -76.8972 37° Northeast  Level Estimated
Wed 11:17:00 PM 39.8228 -76.8127 37° Northeast  Level Estimated
Wed 11:18:00 PM 39.9100 -76.7279 37° Northeast  Level Estimated
Wed 11:19:00 PM 39.9971 -76.6429 37° Northeast  Level Estimated
Wed 11:20:00 PM 40.0841 -76.5576 37° Northeast  Level Estimated
Wed 11:21:00 PM 40.1711 -76.4722 37° Northeast  Level Estimated
Wed 11:22:00 PM 40.2580 -76.3865 37° Northeast  Level Estimated
Wed 11:23:00 PM 40.3448 -76.3007 37° Northeast  Level Estimated
Wed 11:24:00 PM 40.4316 -76.2145 37° Northeast  Level Estimated
Wed 11:25:00 PM 40.5183 -76.1282 37° Northeast  Level Estimated
Wed 11:26:00 PM 40.6049 -76.0417 37° Northeast  Level Estimated
Wed 11:27:00 PM 40.6915 -75.9549 37° Northeast  Level Estimated
Wed 11:28:00 PM 40.7780 -75.8679 37° Northeast  Level Estimated
Wed 11:29:00 PM 40.8645 -75.7807 37° Northeast  Level Estimated
Wed 11:30:00 PM 40.9509 -75.6932 37° Northeast  Level Estimated
Wed 11:31:00 PM 41.0372 -75.6056 37° Northeast  Level Estimated
Wed 11:32:00 PM 41.1234 -75.5176 38° Northeast  Level Estimated
Wed 11:33:00 PM 41.2096 -75.4295 38° Northeast  Level Estimated
Wed 11:34:00 PM 41.2957 -75.3411 38° Northeast  Level Estimated
Wed 11:35:00 PM 41.3818 -75.2525 38° Northeast  Level Estimated
Wed 11:36:00 PM 41.4678 -75.1637 38° Northeast  Level Estimated
Wed 11:37:00 PM 41.5537 -75.0746 38° Northeast  Level Estimated
Wed 11:38:00 PM 41.6395 -74.9853 38° Northeast  Level Estimated
Wed 11:39:00 PM 41.7253 -74.8957 38° Northeast  Level Estimated
Wed 11:40:00 PM 41.8110 -74.8059 38° Northeast  Level Estimated
Wed 11:41:00 PM 41.8966 -74.7159 38° Northeast  Level Estimated
Wed 11:42:00 PM 41.9822 -74.6256 38° Northeast  Level Estimated
Wed 11:43:00 PM 42.0677 -74.5351 38° Northeast  Level Estimated
Wed 11:44:00 PM 42.1467 -74.4512 38° Northeast  Level Estimated
Wed 11:45:00 PM 42.2256 -74.3671 38° Northeast  Level Estimated
Wed 11:46:00 PM 42.3045 -74.2827 38° Northeast  Level Estimated
Wed 11:47:00 PM 42.3833 -74.1982 38° Northeast  Level Estimated
Wed 11:48:00 PM 42.4620 -74.1134 38° Northeast  Level Estimated
Wed 11:49:00 PM 42.5407 -74.0284 38° Northeast  Level Estimated
Wed 11:50:00 PM 42.6193 -73.9432 39° Northeast  Level Estimated
Wed 11:51:00 PM 42.6979 -73.8578 39° Northeast  Level Estimated
Wed 11:52:00 PM 42.7491 -73.8020 39° Northeast  Level Estimated
Wed 11:53:00 PM 42.7491 -73.8020 304° West  Level Estimated

Login

Don't have an account? Register now (free) for customized features, flight alerts, and more!